sensor_id;sensor_type;location;lat;lon;timestamp;temperature;humidity
18365;DHT22;9309;52.126;11.616;2023-05-07T00:01:12;9.20;86.20
18365;DHT22;9309;52.126;11.616;2023-05-07T00:03:39;9.30;85.70
18365;DHT22;9309;52.126;11.616;2023-05-07T00:06:07;9.40;85.10
18365;DHT22;9309;52.126;11.616;2023-05-07T00:08:33;9.40;85.10
18365;DHT22;9309;52.126;11.616;2023-05-07T00:11:00;9.60;84.50
18365;DHT22;9309;52.126;11.616;2023-05-07T00:13:28;9.50;84.20
18365;DHT22;9309;52.126;11.616;2023-05-07T00:15:56;9.50;84.20
18365;DHT22;9309;52.126;11.616;2023-05-07T00:18:22;9.60;84.10
18365;DHT22;9309;52.126;11.616;2023-05-07T00:20:49;9.60;83.50
18365;DHT22;9309;52.126;11.616;2023-05-07T00:23:16;9.50;84.10
18365;DHT22;9309;52.126;11.616;2023-05-07T00:25:42;9.40;85.10
18365;DHT22;9309;52.126;11.616;2023-05-07T00:28:09;9.30;84.70
18365;DHT22;9309;52.126;11.616;2023-05-07T00:30:37;9.40;84.60
18365;DHT22;9309;52.126;11.616;2023-05-07T00:33:03;9.40;83.20
18365;DHT22;9309;52.126;11.616;2023-05-07T00:35:30;9.50;82.60
18365;DHT22;9309;52.126;11.616;2023-05-07T00:37:57;9.70;82.10
18365;DHT22;9309;52.126;11.616;2023-05-07T00:40:24;9.60;80.70
18365;DHT22;9309;52.126;11.616;2023-05-07T00:42:50;9.60;81.00
18365;DHT22;9309;52.126;11.616;2023-05-07T00:45:26;9.50;80.60
18365;DHT22;9309;52.126;11.616;2023-05-07T00:47:55;9.40;80.30
18365;DHT22;9309;52.126;11.616;2023-05-07T00:50:23;9.40;80.30
18365;DHT22;9309;52.126;11.616;2023-05-07T00:52:50;9.50;79.70
18365;DHT22;9309;52.126;11.616;2023-05-07T00:55:17;9.50;79.30
18365;DHT22;9309;52.126;11.616;2023-05-07T00:57:44;9.50;78.80
18365;DHT22;9309;52.126;11.616;2023-05-07T01:00:12;9.30;79.80
18365;DHT22;9309;52.126;11.616;2023-05-07T01:02:39;9.50;79.40
18365;DHT22;9309;52.126;11.616;2023-05-07T01:05:09;9.50;78.30
18365;DHT22;9309;52.126;11.616;2023-05-07T01:07:37;9.40;78.50
18365;DHT22;9309;52.126;11.616;2023-05-07T01:10:05;9.30;78.50
18365;DHT22;9309;52.126;11.616;2023-05-07T01:12:33;9.30;79.00
18365;DHT22;9309;52.126;11.616;2023-05-07T01:15:01;9.30;78.40
18365;DHT22;9309;52.126;11.616;2023-05-07T01:17:28;9.20;78.50
18365;DHT22;9309;52.126;11.616;2023-05-07T01:19:55;9.10;78.40
18365;DHT22;9309;52.126;11.616;2023-05-07T01:22:30;9.20;78.40
18365;DHT22;9309;52.126;11.616;2023-05-07T01:24:58;9.40;77.40
18365;DHT22;9309;52.126;11.616;2023-05-07T01:27:28;9.40;77.70
18365;DHT22;9309;52.126;11.616;2023-05-07T01:29:55;9.40;78.00
18365;DHT22;9309;52.126;11.616;2023-05-07T01:32:29;9.40;78.00
18365;DHT22;9309;52.126;11.616;2023-05-07T01:34:58;9.10;78.60
18365;DHT22;9309;52.126;11.616;2023-05-07T01:37:26;9.00;79.60
18365;DHT22;9309;52.126;11.616;2023-05-07T01:39:55;9.10;79.20
18365;DHT22;9309;52.126;11.616;2023-05-07T01:42:22;9.20;78.80
18365;DHT22;9309;52.126;11.616;2023-05-07T01:44:49;9.20;79.10
18365;DHT22;9309;52.126;11.616;2023-05-07T01:47:16;9.20;79.00
18365;DHT22;9309;52.126;11.616;2023-05-07T01:49:43;9.20;78.80
18365;DHT22;9309;52.126;11.616;2023-05-07T01:52:10;9.10;79.70
18365;DHT22;9309;52.126;11.616;2023-05-07T01:54:37;9.20;80.00
18365;DHT22;9309;52.126;11.616;2023-05-07T01:57:05;9.50;78.20
18365;DHT22;9309;52.126;11.616;2023-05-07T01:59:33;9.20;79.00
18365;DHT22;9309;52.126;11.616;2023-05-07T02:02:00;9.40;78.10
18365;DHT22;9309;52.126;11.616;2023-05-07T02:04:27;9.30;78.80
18365;DHT22;9309;52.126;11.616;2023-05-07T02:06:54;9.50;78.50
18365;DHT22;9309;52.126;11.616;2023-05-07T02:09:21;9.70;77.20
18365;DHT22;9309;52.126;11.616;2023-05-07T02:11:49;9.80;76.40
18365;DHT22;9309;52.126;11.616;2023-05-07T02:14:19;9.70;77.80
18365;DHT22;9309;52.126;11.616;2023-05-07T02:16:46;9.70;78.00
18365;DHT22;9309;52.126;11.616;2023-05-07T02:19:14;9.70;77.70
18365;DHT22;9309;52.126;11.616;2023-05-07T02:21:41;9.60;78.10
18365;DHT22;9309;52.126;11.616;2023-05-07T02:24:08;9.50;78.50
18365;DHT22;9309;52.126;11.616;2023-05-07T02:26:35;9.50;78.80
18365;DHT22;9309;52.126;11.616;2023-05-07T02:29:02;9.40;79.50
18365;DHT22;9309;52.126;11.616;2023-05-07T02:31:30;9.40;79.50
18365;DHT22;9309;52.126;11.616;2023-05-07T02:33:59;9.40;79.50
18365;DHT22;9309;52.126;11.616;2023-05-07T02:36:26;9.50;79.20
18365;DHT22;9309;52.126;11.616;2023-05-07T02:39:00;9.50;79.40
18365;DHT22;9309;52.126;11.616;2023-05-07T02:41:28;9.50;79.50
18365;DHT22;9309;52.126;11.616;2023-05-07T02:43:54;9.40;79.80
18365;DHT22;9309;52.126;11.616;2023-05-07T02:46:21;9.50;79.50
18365;DHT22;9309;52.126;11.616;2023-05-07T02:48:57;9.40;79.40
18365;DHT22;9309;52.126;11.616;2023-05-07T02:51:25;9.40;79.60
18365;DHT22;9309;52.126;11.616;2023-05-07T02:53:54;9.50;78.40
18365;DHT22;9309;52.126;11.616;2023-05-07T02:56:21;9.40;79.30
18365;DHT22;9309;52.126;11.616;2023-05-07T02:58:48;9.30;80.00
18365;DHT22;9309;52.126;11.616;2023-05-07T03:01:16;9.30;79.30
18365;DHT22;9309;52.126;11.616;2023-05-07T03:03:57;9.40;78.80
18365;DHT22;9309;52.126;11.616;2023-05-07T03:06:24;9.40;78.70
18365;DHT22;9309;52.126;11.616;2023-05-07T03:08:51;9.40;78.80
18365;DHT22;9309;52.126;11.616;2023-05-07T03:11:18;9.40;78.50
18365;DHT22;9309;52.126;11.616;2023-05-07T03:13:45;9.40;78.60
18365;DHT22;9309;52.126;11.616;2023-05-07T03:16:12;9.30;78.10
18365;DHT22;9309;52.126;11.616;2023-05-07T03:18:39;9.20;78.60
18365;DHT22;9309;52.126;11.616;2023-05-07T03:21:07;8.90;79.90
18365;DHT22;9309;52.126;11.616;2023-05-07T03:23:35;9.00;80.10
18365;DHT22;9309;52.126;11.616;2023-05-07T03:26:01;9.10;80.10
18365;DHT22;9309;52.126;11.616;2023-05-07T03:28:28;8.90;80.10
18365;DHT22;9309;52.126;11.616;2023-05-07T03:30:59;9.00;80.50
18365;DHT22;9309;52.126;11.616;2023-05-07T03:33:29;9.20;79.70
18365;DHT22;9309;52.126;11.616;2023-05-07T03:35:56;9.10;79.80
18365;DHT22;9309;52.126;11.616;2023-05-07T03:38:26;8.90;80.10
18365;DHT22;9309;52.126;11.616;2023-05-07T03:40:56;9.00;80.10
18365;DHT22;9309;52.126;11.616;2023-05-07T03:43:23;9.10;79.80
18365;DHT22;9309;52.126;11.616;2023-05-07T03:45:58;9.30;79.30
18365;DHT22;9309;52.126;11.616;2023-05-07T03:48:26;9.50;78.60
18365;DHT22;9309;52.126;11.616;2023-05-07T03:50:57;9.40;79.30
18365;DHT22;9309;52.126;11.616;2023-05-07T03:53:28;9.40;78.90
18365;DHT22;9309;52.126;11.616;2023-05-07T03:55:55;9.40;79.00
18365;DHT22;9309;52.126;11.616;2023-05-07T03:58:22;9.30;79.20
18365;DHT22;9309;52.126;11.616;2023-05-07T04:00:49;9.20;79.50
18365;DHT22;9309;52.126;11.616;2023-05-07T04:03:26;9.20;78.90
18365;DHT22;9309;52.126;11.616;2023-05-07T04:05:56;9.10;79.30
18365;DHT22;9309;52.126;11.616;2023-05-07T04:08:23;9.10;79.40
18365;DHT22;9309;52.126;11.616;2023-05-07T04:10:56;9.10;79.40
18365;DHT22;9309;52.126;11.616;2023-05-07T04:13:24;9.20;79.20
18365;DHT22;9309;52.126;11.616;2023-05-07T04:15:52;9.30;78.90
18365;DHT22;9309;52.126;11.616;2023-05-07T04:18:19;9.10;79.80
18365;DHT22;9309;52.126;11.616;2023-05-07T04:20:47;9.30;79.40
18365;DHT22;9309;52.126;11.616;2023-05-07T04:23:15;9.20;79.80
18365;DHT22;9309;52.126;11.616;2023-05-07T04:25:42;9.20;79.80
18365;DHT22;9309;52.126;11.616;2023-05-07T04:28:30;9.20;79.50
18365;DHT22;9309;52.126;11.616;2023-05-07T04:30:57;9.40;78.90
18365;DHT22;9309;52.126;11.616;2023-05-07T04:33:25;9.40;78.40
18365;DHT22;9309;52.126;11.616;2023-05-07T04:35:52;9.50;78.10
18365;DHT22;9309;52.126;11.616;2023-05-07T04:38:19;9.40;78.60
18365;DHT22;9309;52.126;11.616;2023-05-07T04:40:48;9.40;78.30
18365;DHT22;9309;52.126;11.616;2023-05-07T04:43:19;9.40;78.80
18365;DHT22;9309;52.126;11.616;2023-05-07T04:45:51;9.40;78.30
18365;DHT22;9309;52.126;11.616;2023-05-07T04:48:23;9.30;78.60
18365;DHT22;9309;52.126;11.616;2023-05-07T04:50:51;9.30;78.80
18365;DHT22;9309;52.126;11.616;2023-05-07T04:53:19;9.30;78.10
18365;DHT22;9309;52.126;11.616;2023-05-07T04:55:47;9.30;78.50
18365;DHT22;9309;52.126;11.616;2023-05-07T04:58:14;9.20;78.50
18365;DHT22;9309;52.126;11.616;2023-05-07T05:00:43;9.20;79.00
18365;DHT22;9309;52.126;11.616;2023-05-07T05:03:12;9.20;79.10
18365;DHT22;9309;52.126;11.616;2023-05-07T05:05:39;9.20;78.60
18365;DHT22;9309;52.126;11.616;2023-05-07T05:08:06;9.20;79.20
18365;DHT22;9309;52.126;11.616;2023-05-07T05:10:36;9.30;78.80
18365;DHT22;9309;52.126;11.616;2023-05-07T05:13:03;9.30;78.70
18365;DHT22;9309;52.126;11.616;2023-05-07T05:15:30;9.20;77.40
18365;DHT22;9309;52.126;11.616;2023-05-07T05:17:57;9.10;78.00
18365;DHT22;9309;52.126;11.616;2023-05-07T05:20:25;9.10;78.10
18365;DHT22;9309;52.126;11.616;2023-05-07T05:22:52;9.10;78.10
18365;DHT22;9309;52.126;11.616;2023-05-07T05:25:19;9.20;78.00
18365;DHT22;9309;52.126;11.616;2023-05-07T05:27:46;9.40;77.50
18365;DHT22;9309;52.126;11.616;2023-05-07T05:30:13;9.40;76.80
18365;DHT22;9309;52.126;11.616;2023-05-07T05:32:43;9.50;76.70
18365;DHT22;9309;52.126;11.616;2023-05-07T05:35:10;9.50;76.80
18365;DHT22;9309;52.126;11.616;2023-05-07T05:37:39;9.30;77.40
18365;DHT22;9309;52.126;11.616;2023-05-07T05:40:07;9.50;77.10
18365;DHT22;9309;52.126;11.616;2023-05-07T05:42:34;9.50;77.10
18365;DHT22;9309;52.126;11.616;2023-05-07T05:45:02;9.70;76.00
18365;DHT22;9309;52.126;11.616;2023-05-07T05:47:30;9.80;75.20
18365;DHT22;9309;52.126;11.616;2023-05-07T05:49:57;9.70;75.50
18365;DHT22;9309;52.126;11.616;2023-05-07T05:52:25;9.60;75.90
18365;DHT22;9309;52.126;11.616;2023-05-07T05:54:54;9.70;75.60
18365;DHT22;9309;52.126;11.616;2023-05-07T05:57:21;9.50;76.70
18365;DHT22;9309;52.126;11.616;2023-05-07T05:59:48;9.60;76.40
18365;DHT22;9309;52.126;11.616;2023-05-07T06:02:15;9.90;75.30
18365;DHT22;9309;52.126;11.616;2023-05-07T06:04:41;9.80;75.60
18365;DHT22;9309;52.126;11.616;2023-05-07T06:07:10;9.60;76.10
18365;DHT22;9309;52.126;11.616;2023-05-07T06:09:37;9.80;76.20
18365;DHT22;9309;52.126;11.616;2023-05-07T06:12:06;9.80;75.90
18365;DHT22;9309;52.126;11.616;2023-05-07T06:14:32;9.70;75.80
18365;DHT22;9309;52.126;11.616;2023-05-07T06:17:00;9.80;75.60
18365;DHT22;9309;52.126;11.616;2023-05-07T06:19:26;10.00;74.60
18365;DHT22;9309;52.126;11.616;2023-05-07T06:21:56;9.90;74.70
18365;DHT22;9309;52.126;11.616;2023-05-07T06:24:24;9.90;74.90
18365;DHT22;9309;52.126;11.616;2023-05-07T06:26:51;10.00;74.30
18365;DHT22;9309;52.126;11.616;2023-05-07T06:29:19;9.90;73.60
18365;DHT22;9309;52.126;11.616;2023-05-07T06:31:46;9.80;74.70
18365;DHT22;9309;52.126;11.616;2023-05-07T06:34:13;9.90;73.80
18365;DHT22;9309;52.126;11.616;2023-05-07T06:36:41;10.00;73.50
18365;DHT22;9309;52.126;11.616;2023-05-07T06:39:27;9.70;74.60
18365;DHT22;9309;52.126;11.616;2023-05-07T06:41:54;9.70;74.00
18365;DHT22;9309;52.126;11.616;2023-05-07T06:44:26;9.80;73.70
18365;DHT22;9309;52.126;11.616;2023-05-07T06:47:06;9.80;74.10
18365;DHT22;9309;52.126;11.616;2023-05-07T06:49:34;9.50;75.60
18365;DHT22;9309;52.126;11.616;2023-05-07T06:52:01;9.60;75.60
18365;DHT22;9309;52.126;11.616;2023-05-07T06:54:29;9.50;75.60
18365;DHT22;9309;52.126;11.616;2023-05-07T06:56:56;9.40;76.10
18365;DHT22;9309;52.126;11.616;2023-05-07T06:59:24;9.70;75.00
18365;DHT22;9309;52.126;11.616;2023-05-07T07:01:53;9.70;75.30
18365;DHT22;9309;52.126;11.616;2023-05-07T07:04:20;9.90;74.40
18365;DHT22;9309;52.126;11.616;2023-05-07T07:06:54;10.00;74.40
18365;DHT22;9309;52.126;11.616;2023-05-07T07:09:22;9.90;74.70
18365;DHT22;9309;52.126;11.616;2023-05-07T07:11:49;10.00;73.60
18365;DHT22;9309;52.126;11.616;2023-05-07T07:14:16;10.00;73.90
18365;DHT22;9309;52.126;11.616;2023-05-07T07:16:47;10.10;73.80
18365;DHT22;9309;52.126;11.616;2023-05-07T07:19:18;10.10;73.10
18365;DHT22;9309;52.126;11.616;2023-05-07T07:21:47;10.20;73.00
18365;DHT22;9309;52.126;11.616;2023-05-07T07:24:13;10.30;73.00
18365;DHT22;9309;52.126;11.616;2023-05-07T07:26:45;10.40;72.30
18365;DHT22;9309;52.126;11.616;2023-05-07T07:29:12;10.10;73.20
18365;DHT22;9309;52.126;11.616;2023-05-07T07:31:41;10.00;73.50
18365;DHT22;9309;52.126;11.616;2023-05-07T07:34:08;9.80;74.50
18365;DHT22;9309;52.126;11.616;2023-05-07T07:36:36;10.00;73.90
18365;DHT22;9309;52.126;11.616;2023-05-07T07:39:03;10.20;73.70
18365;DHT22;9309;52.126;11.616;2023-05-07T07:41:30;10.40;72.10
18365;DHT22;9309;52.126;11.616;2023-05-07T07:43:57;10.50;71.80
18365;DHT22;9309;52.126;11.616;2023-05-07T07:46:24;10.60;71.30
18365;DHT22;9309;52.126;11.616;2023-05-07T07:48:52;10.50;71.80
18365;DHT22;9309;52.126;11.616;2023-05-07T07:51:19;10.60;71.60
18365;DHT22;9309;52.126;11.616;2023-05-07T07:53:48;10.50;71.60
18365;DHT22;9309;52.126;11.616;2023-05-07T07:56:14;10.40;72.50
18365;DHT22;9309;52.126;11.616;2023-05-07T07:58:42;10.30;72.00
18365;DHT22;9309;52.126;11.616;2023-05-07T08:01:08;10.30;72.80
18365;DHT22;9309;52.126;11.616;2023-05-07T08:03:37;10.30;73.10
18365;DHT22;9309;52.126;11.616;2023-05-07T08:06:05;10.20;73.20
18365;DHT22;9309;52.126;11.616;2023-05-07T08:08:34;10.20;73.50
18365;DHT22;9309;52.126;11.616;2023-05-07T08:11:02;10.20;73.20
18365;DHT22;9309;52.126;11.616;2023-05-07T08:13:32;10.40;73.20
18365;DHT22;9309;52.126;11.616;2023-05-07T08:15:59;10.70;71.40
18365;DHT22;9309;52.126;11.616;2023-05-07T08:18:26;10.80;70.60
18365;DHT22;9309;52.126;11.616;2023-05-07T08:20:54;10.40;71.80
18365;DHT22;9309;52.126;11.616;2023-05-07T08:23:24;10.70;71.30
18365;DHT22;9309;52.126;11.616;2023-05-07T08:25:52;10.60;71.50
18365;DHT22;9309;52.126;11.616;2023-05-07T08:28:21;10.80;70.80
18365;DHT22;9309;52.126;11.616;2023-05-07T08:30:50;10.70;72.10
18365;DHT22;9309;52.126;11.616;2023-05-07T08:33:17;10.80;71.90
18365;DHT22;9309;52.126;11.616;2023-05-07T08:35:44;11.00;70.10
18365;DHT22;9309;52.126;11.616;2023-05-07T08:38:13;10.80;71.40
18365;DHT22;9309;52.126;11.616;2023-05-07T08:40:40;10.40;73.40
18365;DHT22;9309;52.126;11.616;2023-05-07T08:43:13;10.50;73.50
18365;DHT22;9309;52.126;11.616;2023-05-07T08:45:41;10.10;74.40
18365;DHT22;9309;52.126;11.616;2023-05-07T08:48:15;10.10;74.40
18365;DHT22;9309;52.126;11.616;2023-05-07T08:50:46;10.10;75.10
18365;DHT22;9309;52.126;11.616;2023-05-07T08:53:14;10.30;73.70
18365;DHT22;9309;52.126;11.616;2023-05-07T08:55:42;10.20;73.90
18365;DHT22;9309;52.126;11.616;2023-05-07T08:58:09;10.30;74.10
18365;DHT22;9309;52.126;11.616;2023-05-07T09:00:41;10.10;74.80
18365;DHT22;9309;52.126;11.616;2023-05-07T09:03:08;10.10;75.00
18365;DHT22;9309;52.126;11.616;2023-05-07T09:05:39;10.10;74.80
18365;DHT22;9309;52.126;11.616;2023-05-07T09:08:07;10.10;75.30
18365;DHT22;9309;52.126;11.616;2023-05-07T09:10:35;10.30;74.50
18365;DHT22;9309;52.126;11.616;2023-05-07T09:13:03;10.30;74.50
18365;DHT22;9309;52.126;11.616;2023-05-07T09:15:30;10.30;74.20
18365;DHT22;9309;52.126;11.616;2023-05-07T09:18:00;10.40;73.90
18365;DHT22;9309;52.126;11.616;2023-05-07T09:20:30;10.30;74.50
18365;DHT22;9309;52.126;11.616;2023-05-07T09:22:58;10.40;74.00
18365;DHT22;9309;52.126;11.616;2023-05-07T09:25:29;10.20;74.90
18365;DHT22;9309;52.126;11.616;2023-05-07T09:27:59;10.40;74.50
18365;DHT22;9309;52.126;11.616;2023-05-07T09:30:27;10.60;73.20
18365;DHT22;9309;52.126;11.616;2023-05-07T09:32:54;10.80;72.10
18365;DHT22;9309;52.126;11.616;2023-05-07T09:35:23;10.80;72.30
18365;DHT22;9309;52.126;11.616;2023-05-07T09:37:59;10.60;72.40
18365;DHT22;9309;52.126;11.616;2023-05-07T09:40:30;10.80;72.10
18365;DHT22;9309;52.126;11.616;2023-05-07T09:43:09;10.60;73.20
18365;DHT22;9309;52.126;11.616;2023-05-07T09:45:37;10.30;74.30
18365;DHT22;9309;52.126;11.616;2023-05-07T09:48:06;10.50;73.20
18365;DHT22;9309;52.126;11.616;2023-05-07T09:50:36;11.00;72.20
18365;DHT22;9309;52.126;11.616;2023-05-07T09:53:04;11.30;71.00
18365;DHT22;9309;52.126;11.616;2023-05-07T09:55:32;11.30;70.00
18365;DHT22;9309;52.126;11.616;2023-05-07T09:57:59;11.10;71.20
18365;DHT22;9309;52.126;11.616;2023-05-07T10:00:28;11.30;70.30
18365;DHT22;9309;52.126;11.616;2023-05-07T10:03:04;11.60;69.30
18365;DHT22;9309;52.126;11.616;2023-05-07T10:05:42;11.30;69.40
18365;DHT22;9309;52.126;11.616;2023-05-07T10:08:10;11.40;68.90
18365;DHT22;9309;52.126;11.616;2023-05-07T10:10:40;11.20;69.40
18365;DHT22;9309;52.126;11.616;2023-05-07T10:13:10;11.60;68.80
18365;DHT22;9309;52.126;11.616;2023-05-07T10:15:39;12.20;66.10
18365;DHT22;9309;52.126;11.616;2023-05-07T10:18:07;12.30;65.60
18365;DHT22;9309;52.126;11.616;2023-05-07T10:20:36;12.20;65.30
18365;DHT22;9309;52.126;11.616;2023-05-07T10:23:07;11.90;65.90
18365;DHT22;9309;52.126;11.616;2023-05-07T10:25:42;11.60;67.70
18365;DHT22;9309;52.126;11.616;2023-05-07T10:28:17;11.20;69.40
18365;DHT22;9309;52.126;11.616;2023-05-07T10:30:59;11.20;69.70
18365;DHT22;9309;52.126;11.616;2023-05-07T10:33:34;11.50;69.20
18365;DHT22;9309;52.126;11.616;2023-05-07T10:36:03;11.80;68.30
18365;DHT22;9309;52.126;11.616;2023-05-07T10:38:34;11.90;67.10
18365;DHT22;9309;52.126;11.616;2023-05-07T10:41:02;11.90;66.60
18365;DHT22;9309;52.126;11.616;2023-05-07T10:43:39;11.90;66.50
18365;DHT22;9309;52.126;11.616;2023-05-07T10:46:13;12.00;66.60
18365;DHT22;9309;52.126;11.616;2023-05-07T10:49:07;12.30;66.40
18365;DHT22;9309;52.126;11.616;2023-05-07T10:51:39;12.50;64.80
18365;DHT22;9309;52.126;11.616;2023-05-07T10:54:23;12.70;64.30
18365;DHT22;9309;52.126;11.616;2023-05-07T10:57:32;12.80;64.20
18365;DHT22;9309;52.126;11.616;2023-05-07T11:00:43;12.50;64.20
18365;DHT22;9309;52.126;11.616;2023-05-07T11:03:23;12.10;65.40
18365;DHT22;9309;52.126;11.616;2023-05-07T11:08:53;11.90;66.80
18365;DHT22;9309;52.126;11.616;2023-05-07T11:11:56;11.80;67.10
18365;DHT22;9309;52.126;11.616;2023-05-07T11:14:44;12.00;66.40
18365;DHT22;9309;52.126;11.616;2023-05-07T11:17:15;12.30;65.20
18365;DHT22;9309;52.126;11.616;2023-05-07T11:19:49;12.10;65.80
18365;DHT22;9309;52.126;11.616;2023-05-07T11:22:39;11.90;66.60
18365;DHT22;9309;52.126;11.616;2023-05-07T11:25:18;12.10;66.60
18365;DHT22;9309;52.126;11.616;2023-05-07T11:27:48;12.30;65.40
18365;DHT22;9309;52.126;11.616;2023-05-07T11:30:17;12.30;66.40
18365;DHT22;9309;52.126;11.616;2023-05-07T11:32:47;12.20;66.30
18365;DHT22;9309;52.126;11.616;2023-05-07T11:35:16;12.50;65.50
18365;DHT22;9309;52.126;11.616;2023-05-07T11:37:46;12.60;64.70
18365;DHT22;9309;52.126;11.616;2023-05-07T11:40:14;12.60;64.30
18365;DHT22;9309;52.126;11.616;2023-05-07T11:42:41;12.30;64.90
18365;DHT22;9309;52.126;11.616;2023-05-07T11:45:10;12.20;65.30
18365;DHT22;9309;52.126;11.616;2023-05-07T11:47:37;12.10;65.50
18365;DHT22;9309;52.126;11.616;2023-05-07T11:50:06;12.40;64.60
18365;DHT22;9309;52.126;11.616;2023-05-07T11:52:34;12.50;64.50
18365;DHT22;9309;52.126;11.616;2023-05-07T11:55:02;12.30;64.30
18365;DHT22;9309;52.126;11.616;2023-05-07T11:57:29;12.00;65.40
18365;DHT22;9309;52.126;11.616;2023-05-07T11:59:57;12.10;65.20
18365;DHT22;9309;52.126;11.616;2023-05-07T12:02:25;12.00;65.90
18365;DHT22;9309;52.126;11.616;2023-05-07T12:04:54;11.90;65.50
18365;DHT22;9309;52.126;11.616;2023-05-07T12:07:21;11.80;66.70
18365;DHT22;9309;52.126;11.616;2023-05-07T12:09:50;12.00;66.50
18365;DHT22;9309;52.126;11.616;2023-05-07T12:12:17;12.50;65.00
18365;DHT22;9309;52.126;11.616;2023-05-07T12:14:45;12.70;63.80
18365;DHT22;9309;52.126;11.616;2023-05-07T12:17:13;13.00;63.00
18365;DHT22;9309;52.126;11.616;2023-05-07T12:19:43;12.80;62.60
18365;DHT22;9309;52.126;11.616;2023-05-07T12:22:10;12.60;64.30
18365;DHT22;9309;52.126;11.616;2023-05-07T12:24:44;12.30;65.10
18365;DHT22;9309;52.126;11.616;2023-05-07T12:27:11;12.50;65.00
18365;DHT22;9309;52.126;11.616;2023-05-07T12:29:39;12.70;64.20
18365;DHT22;9309;52.126;11.616;2023-05-07T12:32:13;13.00;63.20
18365;DHT22;9309;52.126;11.616;2023-05-07T12:34:41;13.40;61.50
18365;DHT22;9309;52.126;11.616;2023-05-07T12:37:08;13.30;62.20
18365;DHT22;9309;52.126;11.616;2023-05-07T12:39:35;13.20;61.30
18365;DHT22;9309;52.126;11.616;2023-05-07T12:42:02;12.90;61.90
18365;DHT22;9309;52.126;11.616;2023-05-07T12:44:30;12.90;62.90
18365;DHT22;9309;52.126;11.616;2023-05-07T12:47:00;13.10;62.60
18365;DHT22;9309;52.126;11.616;2023-05-07T12:49:27;13.20;61.70
18365;DHT22;9309;52.126;11.616;2023-05-07T12:51:56;13.50;61.60
18365;DHT22;9309;52.126;11.616;2023-05-07T12:54:29;13.50;61.70
18365;DHT22;9309;52.126;11.616;2023-05-07T12:57:03;13.60;61.40
18365;DHT22;9309;52.126;11.616;2023-05-07T12:59:32;13.70;61.10
18365;DHT22;9309;52.126;11.616;2023-05-07T13:01:58;13.50;60.60
18365;DHT22;9309;52.126;11.616;2023-05-07T13:04:25;13.20;61.60
18365;DHT22;9309;52.126;11.616;2023-05-07T13:06:52;12.80;62.80
18365;DHT22;9309;52.126;11.616;2023-05-07T13:09:20;12.60;64.30
18365;DHT22;9309;52.126;11.616;2023-05-07T13:11:47;12.50;62.80
18365;DHT22;9309;52.126;11.616;2023-05-07T13:14:14;12.70;63.00
18365;DHT22;9309;52.126;11.616;2023-05-07T13:16:41;13.00;61.90
18365;DHT22;9309;52.126;11.616;2023-05-07T13:19:08;13.00;62.20
18365;DHT22;9309;52.126;11.616;2023-05-07T13:21:34;13.00;62.20
18365;DHT22;9309;52.126;11.616;2023-05-07T13:24:01;12.80;62.70
18365;DHT22;9309;52.126;11.616;2023-05-07T13:26:30;12.70;63.20
18365;DHT22;9309;52.126;11.616;2023-05-07T13:28:58;12.80;63.70
18365;DHT22;9309;52.126;11.616;2023-05-07T13:31:24;13.10;63.00
18365;DHT22;9309;52.126;11.616;2023-05-07T13:33:51;13.40;61.60
18365;DHT22;9309;52.126;11.616;2023-05-07T13:36:18;13.40;61.50
18365;DHT22;9309;52.126;11.616;2023-05-07T13:38:45;13.50;61.10
18365;DHT22;9309;52.126;11.616;2023-05-07T13:41:11;13.10;62.20
18365;DHT22;9309;52.126;11.616;2023-05-07T13:43:41;12.90;62.50
18365;DHT22;9309;52.126;11.616;2023-05-07T13:46:07;13.20;61.90
18365;DHT22;9309;52.126;11.616;2023-05-07T13:48:34;13.70;61.00
18365;DHT22;9309;52.126;11.616;2023-05-07T13:51:01;13.60;60.60
18365;DHT22;9309;52.126;11.616;2023-05-07T13:53:28;13.40;61.20
18365;DHT22;9309;52.126;11.616;2023-05-07T13:55:54;13.60;60.50
18365;DHT22;9309;52.126;11.616;2023-05-07T13:58:21;13.30;60.80
18365;DHT22;9309;52.126;11.616;2023-05-07T14:00:49;13.20;61.40
18365;DHT22;9309;52.126;11.616;2023-05-07T14:03:16;13.00;60.80
18365;DHT22;9309;52.126;11.616;2023-05-07T14:05:45;13.20;61.20
18365;DHT22;9309;52.126;11.616;2023-05-07T14:08:11;13.50;60.50
18365;DHT22;9309;52.126;11.616;2023-05-07T14:10:39;13.20;61.00
18365;DHT22;9309;52.126;11.616;2023-05-07T14:13:06;13.40;60.70
18365;DHT22;9309;52.126;11.616;2023-05-07T14:15:32;13.50;60.40
18365;DHT22;9309;52.126;11.616;2023-05-07T14:18:01;13.60;59.80
18365;DHT22;9309;52.126;11.616;2023-05-07T14:20:28;13.30;60.10
18365;DHT22;9309;52.126;11.616;2023-05-07T14:22:56;13.00;61.60
18365;DHT22;9309;52.126;11.616;2023-05-07T14:25:23;13.20;60.70
18365;DHT22;9309;52.126;11.616;2023-05-07T14:27:51;13.40;60.10
18365;DHT22;9309;52.126;11.616;2023-05-07T14:30:17;13.80;60.00
18365;DHT22;9309;52.126;11.616;2023-05-07T14:32:44;13.70;59.10
18365;DHT22;9309;52.126;11.616;2023-05-07T14:35:12;14.10;58.10
18365;DHT22;9309;52.126;11.616;2023-05-07T14:37:39;14.60;57.00
18365;DHT22;9309;52.126;11.616;2023-05-07T14:40:07;15.40;54.70
18365;DHT22;9309;52.126;11.616;2023-05-07T14:42:34;15.70;53.80
18365;DHT22;9309;52.126;11.616;2023-05-07T14:45:01;15.60;53.80
18365;DHT22;9309;52.126;11.616;2023-05-07T14:47:27;15.00;56.00
18365;DHT22;9309;52.126;11.616;2023-05-07T14:49:54;14.80;55.60
18365;DHT22;9309;52.126;11.616;2023-05-07T14:52:24;14.40;56.40
18365;DHT22;9309;52.126;11.616;2023-05-07T14:54:51;14.30;57.20
18365;DHT22;9309;52.126;11.616;2023-05-07T14:57:18;14.20;56.90
18365;DHT22;9309;52.126;11.616;2023-05-07T14:59:45;13.80;58.40
18365;DHT22;9309;52.126;11.616;2023-05-07T15:02:12;13.80;58.70
18365;DHT22;9309;52.126;11.616;2023-05-07T15:04:39;13.80;57.80
18365;DHT22;9309;52.126;11.616;2023-05-07T15:07:11;13.70;58.20
18365;DHT22;9309;52.126;11.616;2023-05-07T15:09:42;13.70;58.10
18365;DHT22;9309;52.126;11.616;2023-05-07T15:12:08;13.60;58.80
18365;DHT22;9309;52.126;11.616;2023-05-07T15:14:35;13.40;59.10
18365;DHT22;9309;52.126;11.616;2023-05-07T15:17:02;13.10;59.80
18365;DHT22;9309;52.126;11.616;2023-05-07T15:19:29;13.60;59.00
18365;DHT22;9309;52.126;11.616;2023-05-07T15:21:57;14.30;57.90
18365;DHT22;9309;52.126;11.616;2023-05-07T15:24:25;14.50;56.40
18365;DHT22;9309;52.126;11.616;2023-05-07T15:27:02;14.40;56.40
18365;DHT22;9309;52.126;11.616;2023-05-07T15:29:37;14.10;57.30
18365;DHT22;9309;52.126;11.616;2023-05-07T15:32:04;14.00;58.10
18365;DHT22;9309;52.126;11.616;2023-05-07T15:34:31;14.10;57.80
18365;DHT22;9309;52.126;11.616;2023-05-07T15:36:57;13.80;58.80
18365;DHT22;9309;52.126;11.616;2023-05-07T15:39:24;13.50;59.20
18365;DHT22;9309;52.126;11.616;2023-05-07T15:41:52;13.50;59.60
18365;DHT22;9309;52.126;11.616;2023-05-07T15:44:19;13.60;59.70
18365;DHT22;9309;52.126;11.616;2023-05-07T15:46:46;13.50;60.00
18365;DHT22;9309;52.126;11.616;2023-05-07T15:49:13;14.00;59.20
18365;DHT22;9309;52.126;11.616;2023-05-07T15:51:40;14.30;57.80